Date,TemperatureHighF,TemperatureAvgF,TemperatureLowF,DewpointHighF,DewpointAvgF,DewpointLowF,HumidityHigh,HumidityAvg,HumidityLow,PressureMaxIn,PressureMinIn,WindSpeedMaxMPH,WindSpeedAvgMPH,GustSpeedMaxMPH,PrecipitationSumIn
2013-8-1,90.1,75.8,64.8,73.4,66.4,62.1,94,75,46,30.05,29.97,16,2,16,0.00
2013-8-2,88.2,74.3,59.5,67.9,63.9,57.2,95,73,47,30.03,29.94,16,1,16,0.01
2013-8-3,85.3,75.6,72.0,76.5,70.3,66.4,93,84,72,30.06,29.91,11,1,11,0.23
2013-8-4,85.8,74.1,64.1,69.1,64.5,61.3,94,74,47,30.14,30.04,11,1,13,0.00
2013-8-5,77.0,69.5,64.2,66.7,63.4,59.9,90,82,62,30.08,29.92,13,1,16,0.21
2013-8-6,85.9,75.2,69.4,75.1,70.1,66.5,92,85,66,29.96,29.87,13,1,13,0.00
2013-8-7,85.9,75.9,70.3,77.4,71.0,67.5,94,85,64,29.94,29.84,14,1,16,0.74
2013-8-8,83.5,75.2,67.7,75.7,71.0,65.6,95,87,73,29.97,29.86,14,1,16,0.14
2013-8-9,88.4,76.2,71.6,79.0,72.3,68.9,94,88,69,30.03,29.89,22,1,31,0.31
2013-8-10,82.7,75.8,70.1,75.1,71.1,68.0,95,86,71,30.10,30.01,9,0,9,0.13
2013-8-11,91.3,79.1,68.9,75.0,70.6,66.1,94,77,52,30.11,30.02,11,1,13,0.00
2013-8-12,88.5,77.2,71.7,77.6,72.2,69.0,94,85,67,30.05,29.88,31,1,31,0.41
2013-8-13,88.5,75.8,64.0,75.1,68.4,60.0,94,79,51,30.05,29.90,16,2,16,0.00
2013-8-14,78.8,65.7,54.5,60.9,54.9,51.0,89,70,44,30.14,30.04,18,2,22,0.01
2013-8-15,81.8,65.3,50.9,62.5,54.8,48.4,94,72,43,30.12,30.04,16,1,18,0.00
2013-8-16,82.3,68.3,56.7,64.2,59.3,53.4,91,75,50,30.09,30.04,16,1,18,0.00
2013-8-17,83.7,68.5,63.4,71.9,63.4,58.9,93,84,60,30.15,30.05,13,1,13,0.54
2013-8-18,82.0,69.2,62.2,73.2,65.2,60.1,95,88,64,30.14,30.06,14,0,14,0.17
2013-8-19,89.3,72.6,60.3,73.0,65.6,58.6,95,80,53,30.12,30.01,11,1,11,0.01
2013-8-20,92.3,76.9,63.7,75.8,68.2,61.6,95,77,50,30.10,30.01,14,1,14,0.00
2013-8-21,92.3,78.4,66.2,75.2,69.5,64.1,95,76,50,30.13,30.04,13,1,13,0.00
2013-8-22,93.8,80.5,67.3,76.7,70.7,65.2,95,74,49,30.11,29.99,13,1,13,0.00
2013-8-23,94.5,80.1,69.8,79.2,72.3,67.4,94,79,54,30.07,29.99,14,1,14,0.00
2013-8-24,92.5,77.7,66.5,75.3,68.5,64.2,95,76,48,30.18,30.06,14,1,14,0.00
2013-8-25,90.0,76.9,64.2,76.7,69.4,61.9,94,79,60,30.25,30.17,13,1,13,0.00
2013-8-26,91.5,80.0,70.8,75.6,71.0,67.8,92,76,54,30.24,30.09,14,1,14,0.00
2013-8-27,92.2,80.1,70.7,74.9,71.0,67.1,89,75,55,30.10,30.00,18,2,18,0.00
2013-8-28,95.5,82.3,71.5,76.1,70.4,67.7,89,69,43,30.04,29.97,20,2,20,0.00
2013-8-29,98.3,83.9,72.8,76.9,71.8,68.0,87,69,45,30.01,29.93,14,1,14,0.00
2013-8-30,98.2,84.3,70.9,76.5,72.0,68.4,94,70,41,29.97,29.85,13,1,13,0.00
2013-8-31,98.3,86.2,76.8,77.1,74.0,69.1,88,69,46,29.87,29.74,16,2,18,0.01